createdAt,value
2019-05-26T00:01:28.720Z,14.70
2019-05-26T00:03:57.089Z,14.50
2019-05-26T00:06:24.570Z,14.50
2019-05-26T00:08:53.026Z,14.40
2019-05-26T00:11:20.693Z,14.40
2019-05-26T00:13:48.952Z,14.50
2019-05-26T00:16:16.451Z,14.50
2019-05-26T00:18:44.714Z,14.20
2019-05-26T00:21:13.213Z,14.00
2019-05-26T00:23:40.876Z,14.00
2019-05-26T00:26:08.554Z,13.80
2019-05-26T00:28:36.039Z,13.60
2019-05-26T00:31:04.521Z,13.50
2019-05-26T00:33:32.155Z,13.50
2019-05-26T00:35:59.668Z,13.50
2019-05-26T00:38:27.283Z,13.60
2019-05-26T00:40:54.959Z,13.80
2019-05-26T00:43:22.456Z,13.60
2019-05-26T00:45:50.075Z,13.60
2019-05-26T00:48:17.575Z,13.90
2019-05-26T00:50:45.930Z,14.20
2019-05-26T00:53:14.290Z,14.10
2019-05-26T00:55:41.892Z,14.00
2019-05-26T00:58:10.238Z,14.00
2019-05-26T01:00:40.764Z,14.00
2019-05-26T01:03:08.256Z,13.90
2019-05-26T01:05:35.867Z,13.90
2019-05-26T01:08:06.627Z,13.70
2019-05-26T01:10:32.604Z,13.70
2019-05-26T01:13:00.967Z,14.00
2019-05-26T01:15:28.452Z,14.00
2019-05-26T01:17:55.959Z,13.90
2019-05-26T01:20:23.498Z,13.90
2019-05-26T01:22:53.728Z,13.90
2019-05-26T01:25:19.516Z,14.20
2019-05-26T01:27:47.008Z,14.20
2019-05-26T01:30:14.623Z,14.20
2019-05-26T01:32:42.870Z,14.20
2019-05-26T01:35:10.392Z,14.10
2019-05-26T01:37:38.660Z,14.30
2019-05-26T01:42:42.172Z,14.20
2019-05-26T01:45:10.568Z,14.00
2019-05-26T01:47:39.056Z,14.00
2019-05-26T01:50:06.701Z,14.00
2019-05-26T01:52:34.372Z,14.50
2019-05-26T01:55:01.964Z,14.20
2019-05-26T01:57:30.421Z,14.10
2019-05-26T01:59:57.990Z,14.10
2019-05-26T02:02:25.600Z,14.20
2019-05-26T02:04:53.333Z,14.20
2019-05-26T02:07:20.995Z,14.20
2019-05-26T02:09:48.496Z,14.10
2019-05-26T02:12:16.116Z,14.00
2019-05-26T02:14:43.694Z,13.90
2019-05-26T02:17:11.960Z,13.90
2019-05-26T02:19:40.278Z,14.00
2019-05-26T02:22:07.909Z,14.00
2019-05-26T02:24:36.550Z,13.90
2019-05-26T02:27:04.137Z,13.90
2019-05-26T02:29:33.061Z,14.00
2019-05-26T02:32:00.622Z,14.00
2019-05-26T02:34:28.286Z,14.10
2019-05-26T02:36:56.559Z,14.10
2019-05-26T02:39:24.237Z,14.10
2019-05-26T02:41:51.801Z,14.10
2019-05-26T02:44:19.279Z,14.30
2019-05-26T02:46:47.552Z,14.10
2019-05-26T02:49:19.135Z,14.20
2019-05-26T02:51:46.650Z,14.20
2019-05-26T02:54:14.170Z,14.40
2019-05-26T03:02:01.408Z,14.30
2019-05-26T03:04:08.807Z,14.50
2019-05-26T03:06:38.202Z,14.30
2019-05-26T03:09:21.709Z,14.30
2019-05-26T03:11:34.142Z,14.40
2019-05-26T03:14:02.410Z,14.60
2019-05-26T03:16:29.899Z,14.60
2019-05-26T03:18:58.581Z,14.50
2019-05-26T03:21:26.406Z,14.50
2019-05-26T03:23:54.026Z,14.40
2019-05-26T03:26:22.413Z,14.40
2019-05-26T03:28:50.669Z,14.50
2019-05-26T03:31:18.153Z,14.50
2019-05-26T03:33:46.433Z,14.40
2019-05-26T03:36:14.798Z,14.50
2019-05-26T03:38:42.353Z,14.50
2019-05-26T03:41:09.928Z,14.40
2019-05-26T03:43:37.416Z,14.30
2019-05-26T03:46:09.509Z,14.40
2019-05-26T03:48:37.249Z,14.40
2019-05-26T03:51:05.520Z,14.60
2019-05-26T03:53:33.889Z,14.60
2019-05-26T03:56:01.388Z,14.60
2019-05-26T03:58:28.920Z,14.50
2019-05-26T04:00:56.413Z,14.60
2019-05-26T04:03:24.756Z,14.60
2019-05-26T04:05:52.253Z,14.60
2019-05-26T04:08:20.547Z,14.70
2019-05-26T04:10:48.151Z,14.60
2019-05-26T04:13:15.975Z,14.70
2019-05-26T04:15:43.524Z,14.80
2019-05-26T04:18:11.913Z,14.70
2019-05-26T04:20:40.188Z,14.70
2019-05-26T04:23:07.836Z,14.70
2019-05-26T04:25:35.503Z,14.60
2019-05-26T04:28:03.931Z,14.70
2019-05-26T04:30:31.458Z,14.70
2019-05-26T04:32:59.108Z,14.80
2019-05-26T04:35:26.683Z,14.80
2019-05-26T04:37:54.936Z,14.70
2019-05-26T04:40:26.948Z,14.70
2019-05-26T04:42:50.159Z,14.70
2019-05-26T04:45:17.879Z,14.60
2019-05-26T04:47:46.252Z,14.80
2019-05-26T04:50:14.522Z,14.70
2019-05-26T04:52:42.110Z,14.70
2019-05-26T04:55:10.375Z,14.70
2019-05-26T04:57:37.874Z,14.70
2019-05-26T05:00:06.874Z,14.80
2019-05-26T05:02:34.486Z,14.80
2019-05-26T05:05:02.174Z,14.80
2019-05-26T05:07:30.493Z,14.70
2019-05-26T05:09:57.992Z,14.70
2019-05-26T05:12:25.483Z,14.80
2019-05-26T05:14:53.855Z,14.80
2019-05-26T05:17:21.414Z,14.80
2019-05-26T05:19:48.919Z,14.80
2019-05-26T05:22:16.429Z,14.90
2019-05-26T05:24:44.105Z,15.00
2019-05-26T05:27:11.694Z,15.00
2019-05-26T05:29:39.989Z,15.00
2019-05-26T05:32:07.486Z,15.00
2019-05-26T05:34:35.072Z,15.00
2019-05-26T05:37:04.486Z,15.00
2019-05-26T05:39:32.144Z,15.00
2019-05-26T05:41:59.653Z,15.10
2019-05-26T05:44:27.229Z,15.10
2019-05-26T05:46:54.836Z,15.10
2019-05-26T05:49:22.412Z,15.20
2019-05-26T05:51:50.093Z,15.20
2019-05-26T05:54:17.801Z,15.20
2019-05-26T05:56:45.306Z,15.40
2019-05-26T05:59:13.816Z,15.40
2019-05-26T06:01:41.584Z,15.40
2019-05-26T06:04:09.838Z,15.50
2019-05-26T06:06:39.060Z,15.50
2019-05-26T06:09:07.322Z,15.60
2019-05-26T06:11:34.982Z,15.60
2019-05-26T06:14:03.743Z,15.70
2019-05-26T06:16:31.233Z,15.70
2019-05-26T06:18:58.709Z,15.70
2019-05-26T06:21:26.269Z,15.70
2019-05-26T06:23:55.105Z,15.80
2019-05-26T06:26:22.843Z,15.80
2019-05-26T06:28:52.466Z,15.90
2019-05-26T06:31:17.983Z,15.80
2019-05-26T06:33:46.246Z,16.00
2019-05-26T06:36:14.002Z,16.00
2019-05-26T06:38:41.584Z,16.00
2019-05-26T06:41:11.878Z,16.20
2019-05-26T06:43:39.478Z,16.20
2019-05-26T06:46:07.342Z,16.20
2019-05-26T06:48:34.870Z,16.20
2019-05-26T06:51:02.652Z,16.20
2019-05-26T06:53:30.170Z,16.20
2019-05-26T06:55:58.518Z,16.30
2019-05-26T06:58:26.198Z,16.30
2019-05-26T07:00:53.766Z,16.30
2019-05-26T07:03:22.053Z,16.30
2019-05-26T07:05:49.701Z,16.30
2019-05-26T07:08:17.383Z,16.30
2019-05-26T07:10:46.051Z,16.30
2019-05-26T07:13:13.611Z,16.30
2019-05-26T07:15:41.094Z,16.30
2019-05-26T07:18:09.364Z,16.40
2019-05-26T07:20:37.131Z,16.40
2019-05-26T07:23:07.734Z,16.50
2019-05-26T07:25:34.918Z,16.60
2019-05-26T07:28:02.515Z,16.60
2019-05-26T07:30:30.803Z,16.70
2019-05-26T07:32:58.427Z,16.60
2019-05-26T07:35:25.990Z,16.70
2019-05-26T07:37:53.571Z,16.70
2019-05-26T07:40:21.112Z,16.70
2019-05-26T07:42:48.600Z,16.70
2019-05-26T07:45:17.172Z,16.80
2019-05-26T07:47:44.745Z,16.80
2019-05-26T07:50:12.224Z,16.80
2019-05-26T07:52:40.787Z,16.80
2019-05-26T07:55:08.452Z,16.80
2019-05-26T07:57:36.135Z,16.80
2019-05-26T08:00:04.609Z,16.80
2019-05-26T08:02:32.176Z,16.80
2019-05-26T08:05:04.698Z,16.80
2019-05-26T08:07:32.324Z,16.80
2019-05-26T08:09:59.881Z,16.80
2019-05-26T08:12:30.543Z,16.90
2019-05-26T08:14:55.426Z,16.90
2019-05-26T08:17:23.700Z,16.90
2019-05-26T08:19:52.796Z,16.90
2019-05-26T08:22:20.287Z,16.90
2019-05-26T08:24:48.530Z,17.10
2019-05-26T08:27:16.046Z,17.10
2019-05-26T08:29:43.528Z,17.10
2019-05-26T08:32:11.123Z,17.10
2019-05-26T08:34:38.606Z,17.10
2019-05-26T08:37:06.263Z,17.20
2019-05-26T08:39:33.861Z,17.30
2019-05-26T08:42:02.237Z,17.20
2019-05-26T08:44:30.329Z,17.20
2019-05-26T08:46:58.576Z,17.30
2019-05-26T08:49:26.119Z,17.30
2019-05-26T08:51:53.702Z,17.40
2019-05-26T08:54:21.270Z,17.40
2019-05-26T08:56:48.768Z,17.50
2019-05-26T08:59:16.497Z,17.60
2019-05-26T09:01:44.166Z,17.70
2019-05-26T09:04:13.169Z,17.80
2019-05-26T09:06:41.409Z,17.90
2019-05-26T09:09:08.894Z,17.80
2019-05-26T09:11:37.213Z,17.90
2019-05-26T09:14:04.701Z,17.90
2019-05-26T09:16:32.506Z,18.10
2019-05-26T09:19:00.176Z,18.20
2019-05-26T09:21:27.698Z,18.30
2019-05-26T09:23:55.224Z,18.30
2019-05-26T09:26:23.698Z,18.30
2019-05-26T09:28:53.235Z,18.30
2019-05-26T09:31:21.582Z,18.30
2019-05-26T09:33:49.263Z,18.30
2019-05-26T09:36:17.545Z,18.40
2019-05-26T09:38:45.914Z,18.40
2019-05-26T09:41:13.473Z,18.40
2019-05-26T09:43:40.982Z,18.50
2019-05-26T09:46:08.532Z,18.60
2019-05-26T09:48:36.882Z,18.70
2019-05-26T09:51:04.453Z,18.70
2019-05-26T09:53:31.968Z,18.70
2019-05-26T09:55:59.797Z,18.80
2019-05-26T09:58:28.071Z,18.80
2019-05-26T10:00:55.642Z,18.80
2019-05-26T10:03:23.193Z,18.90
2019-05-26T10:05:50.846Z,19.00
2019-05-26T10:08:18.526Z,19.00
2019-05-26T10:10:46.904Z,19.00
2019-05-26T10:13:14.400Z,19.00
2019-05-26T10:15:42.690Z,18.70
2019-05-26T10:18:11.044Z,18.60
2019-05-26T10:20:38.602Z,18.60
2019-05-26T10:23:06.303Z,18.70
2019-05-26T10:25:33.957Z,18.70
2019-05-26T10:28:03.757Z,18.80
2019-05-26T10:30:31.257Z,18.80
2019-05-26T10:32:58.819Z,18.70
2019-05-26T10:35:26.336Z,18.90
2019-05-26T10:37:54.010Z,19.00
2019-05-26T10:40:21.560Z,19.10
2019-05-26T10:42:49.517Z,19.20
2019-05-26T10:45:17.004Z,19.20
2019-05-26T10:47:44.591Z,19.20
2019-05-26T10:50:12.848Z,19.20
2019-05-26T10:52:42.748Z,19.20
2019-05-26T10:55:10.295Z,19.10
2019-05-26T10:57:37.777Z,19.20
2019-05-26T11:00:05.358Z,19.20
2019-05-26T11:02:32.879Z,19.30
2019-05-26T11:05:00.507Z,19.30
2019-05-26T11:07:28.841Z,19.40
2019-05-26T11:09:56.346Z,19.40
2019-05-26T11:12:24.586Z,19.60
2019-05-26T11:14:52.062Z,19.50
2019-05-26T11:17:19.853Z,19.70
2019-05-26T11:19:47.515Z,19.70
2019-05-26T11:22:15.765Z,19.90
2019-05-26T11:24:43.253Z,19.90
2019-05-26T11:27:13.031Z,20.10
2019-05-26T11:29:38.508Z,20.20
2019-05-26T11:32:07.650Z,20.30
2019-05-26T11:34:35.118Z,20.30
2019-05-26T11:37:02.595Z,20.30
2019-05-26T11:39:30.110Z,20.30
2019-05-26T11:42:11.973Z,20.40
2019-05-26T11:44:25.319Z,20.40
2019-05-26T11:46:53.681Z,20.30
2019-05-26T11:49:21.215Z,20.30
2019-05-26T11:51:48.930Z,20.30
2019-05-26T11:54:17.195Z,20.30
2019-05-26T11:56:45.172Z,20.20
2019-05-26T11:59:13.045Z,20.00
2019-05-26T12:01:40.709Z,20.00
2019-05-26T12:04:08.370Z,20.10
2019-05-26T12:06:36.494Z,20.00
2019-05-26T12:11:32.917Z,20.10
2019-05-26T12:14:01.169Z,20.20
2019-05-26T12:16:29.049Z,20.20
2019-05-26T12:18:57.036Z,20.40
2019-05-26T12:21:24.531Z,20.40
2019-05-26T12:23:55.073Z,20.50
2019-05-26T12:26:21.477Z,20.60
2019-05-26T12:28:50.167Z,20.60
2019-05-26T12:31:17.742Z,20.60
2019-05-26T12:33:46.107Z,20.60
2019-05-26T12:36:13.704Z,20.60
2019-05-26T12:38:47.774Z,20.60
2019-05-26T12:41:15.258Z,20.60
2019-05-26T12:43:43.658Z,20.80
2019-05-26T12:46:12.144Z,20.90
2019-05-26T12:48:40.494Z,21.00
2019-05-26T12:51:08.343Z,21.00
2019-05-26T12:53:35.832Z,21.00
2019-05-26T12:56:04.403Z,21.10
2019-05-26T12:58:31.993Z,21.10
2019-05-26T13:00:59.664Z,21.10
2019-05-26T13:03:27.787Z,21.10
2019-05-26T13:05:55.391Z,21.00
2019-05-26T13:08:22.956Z,21.10
2019-05-26T13:10:50.517Z,21.20
2019-05-26T13:13:18.109Z,21.10
2019-05-26T13:15:45.756Z,21.10
2019-05-26T13:18:13.304Z,21.00
2019-05-26T13:20:40.884Z,21.00
2019-05-26T13:23:08.387Z,21.20
2019-05-26T13:28:05.873Z,21.60
2019-05-26T13:30:33.394Z,21.60
2019-05-26T13:33:00.968Z,21.50
2019-05-26T13:35:29.656Z,21.30
2019-05-26T13:37:57.318Z,21.30
2019-05-26T13:40:24.882Z,21.10
2019-05-26T13:42:52.752Z,21.00
2019-05-26T13:45:22.887Z,21.10
2019-05-26T13:47:48.919Z,21.00
2019-05-26T13:50:16.480Z,21.00
2019-05-26T13:52:44.141Z,21.00
2019-05-26T13:55:12.409Z,21.00
2019-05-26T13:57:39.974Z,21.00
2019-05-26T14:00:07.614Z,20.90
2019-05-26T14:02:35.315Z,20.90
2019-05-26T14:05:05.298Z,20.90
2019-05-26T14:07:32.908Z,20.90
2019-05-26T14:10:02.483Z,20.70
2019-05-26T14:12:30.094Z,20.70
2019-05-26T14:14:58.459Z,20.70
2019-05-26T14:17:26.129Z,20.60
2019-05-26T14:19:54.144Z,20.70
2019-05-26T14:22:22.698Z,20.60
2019-05-26T14:24:53.989Z,20.70
2019-05-26T14:27:17.815Z,20.50
2019-05-26T14:29:45.385Z,20.70
2019-05-26T14:32:12.937Z,20.90
2019-05-26T14:34:40.615Z,20.70
2019-05-26T14:37:08.110Z,20.80
2019-05-26T14:39:36.557Z,20.70
2019-05-26T14:42:04.053Z,20.80
2019-05-26T14:44:31.541Z,20.90
2019-05-26T14:46:59.358Z,21.00
2019-05-26T14:49:26.862Z,21.00
2019-05-26T14:51:55.416Z,21.00
2019-05-26T14:54:22.916Z,20.90
2019-05-26T14:56:50.513Z,21.00
2019-05-26T14:59:18.124Z,20.90
2019-05-26T15:01:46.483Z,20.50
2019-05-26T15:04:13.961Z,20.50
2019-05-26T15:06:42.216Z,20.60
2019-05-26T15:09:24.269Z,20.60
2019-05-26T15:11:38.895Z,20.90
2019-05-26T15:14:06.557Z,20.90
2019-05-26T15:16:35.767Z,20.60
2019-05-26T15:19:04.710Z,20.70
2019-05-26T15:21:32.281Z,20.70
2019-05-26T15:24:00.912Z,20.50
2019-05-26T15:26:29.960Z,20.50
2019-05-26T15:28:58.593Z,20.30
2019-05-26T15:31:26.089Z,20.30
2019-05-26T15:33:54.333Z,20.50
2019-05-26T15:36:22.354Z,20.50
2019-05-26T15:38:50.078Z,20.30
2019-05-26T15:41:17.652Z,20.30
2019-05-26T15:43:45.140Z,20.50
2019-05-26T15:46:24.681Z,20.40
2019-05-26T15:48:42.605Z,20.50
2019-05-26T15:51:10.162Z,20.50
2019-05-26T15:53:37.644Z,20.40
2019-05-26T15:56:06.457Z,20.50
2019-05-26T15:58:33.939Z,20.50
2019-05-26T16:01:01.545Z,20.20
2019-05-26T16:03:29.151Z,20.30
2019-05-26T16:05:56.655Z,20.40
2019-05-26T16:08:24.445Z,20.50
2019-05-26T16:10:53.531Z,20.30
2019-05-26T16:13:21.226Z,20.30
2019-05-26T16:15:49.697Z,20.50
2019-05-26T16:18:17.459Z,20.50
2019-05-26T16:20:45.133Z,20.40
2019-05-26T16:23:14.228Z,20.30
2019-05-26T16:25:41.792Z,20.30
2019-05-26T16:28:09.360Z,20.20
2019-05-26T16:30:37.025Z,20.30
2019-05-26T16:33:04.694Z,20.10
2019-05-26T16:35:32.210Z,20.10
2019-05-26T16:37:59.718Z,20.10
2019-05-26T16:42:56.280Z,19.90
2019-05-26T16:45:23.803Z,19.90
2019-05-26T16:47:51.426Z,19.90
2019-05-26T16:50:21.434Z,19.80
2019-05-26T16:52:48.992Z,19.70
2019-05-26T16:55:16.499Z,19.70
2019-05-26T16:57:44.034Z,19.80
2019-05-26T17:00:11.806Z,19.90
2019-05-26T17:02:40.159Z,19.80
2019-05-26T17:05:07.660Z,19.80
2019-05-26T17:07:36.007Z,19.80
2019-05-26T17:10:04.616Z,19.80
2019-05-26T17:12:32.104Z,19.80
2019-05-26T17:15:00.454Z,19.70
2019-05-26T17:17:27.924Z,19.70
2019-05-26T17:19:55.583Z,19.50
2019-05-26T17:22:23.197Z,19.30
2019-05-26T17:24:50.816Z,19.50
2019-05-26T17:27:19.524Z,19.40
2019-05-26T17:29:48.299Z,19.30
2019-05-26T17:32:15.810Z,19.30
2019-05-26T17:34:43.357Z,19.40
2019-05-26T17:37:10.887Z,19.20
2019-05-26T17:39:39.717Z,19.20
2019-05-26T17:42:07.339Z,19.20
2019-05-26T17:44:34.835Z,19.10
2019-05-26T17:47:04.023Z,19.60
2019-05-26T17:49:31.681Z,19.60
2019-05-26T17:51:59.268Z,19.30
2019-05-26T17:54:27.520Z,19.40
2019-05-26T17:56:55.221Z,19.40
2019-05-26T17:59:23.766Z,19.30
2019-05-26T18:01:51.358Z,19.20
2019-05-26T18:04:19.641Z,19.10
2019-05-26T18:06:47.893Z,18.80
2019-05-26T18:09:15.565Z,18.80
2019-05-26T18:11:43.240Z,18.90
2019-05-26T18:14:10.724Z,18.70
2019-05-26T18:16:39.012Z,18.60
2019-05-26T18:19:06.547Z,18.60
2019-05-26T18:21:34.061Z,18.40
2019-05-26T18:24:01.551Z,18.40
2019-05-26T18:26:29.103Z,18.30
2019-05-26T18:28:56.689Z,18.20
2019-05-26T18:31:28.969Z,18.20
2019-05-26T18:33:53.711Z,18.30
2019-05-26T18:36:21.479Z,18.30
2019-05-26T18:38:49.082Z,18.10
2019-05-26T18:41:16.675Z,18.10
2019-05-26T18:43:44.294Z,18.30
2019-05-26T18:46:11.901Z,18.10
2019-05-26T18:48:39.402Z,18.20
2019-05-26T18:51:06.925Z,18.30
2019-05-26T18:53:34.413Z,18.10
2019-05-26T18:56:02.662Z,18.10
2019-05-26T18:58:30.143Z,18.10
2019-05-26T19:00:58.497Z,17.80
2019-05-26T19:03:25.986Z,17.80
2019-05-26T19:05:53.656Z,17.90
2019-05-26T19:08:22.227Z,17.70
2019-05-26T19:10:49.898Z,17.70
2019-05-26T19:13:17.468Z,17.70
2019-05-26T19:15:45.132Z,17.80
2019-05-26T19:18:19.739Z,17.70
2019-05-26T19:20:41.176Z,17.40
2019-05-26T19:23:08.673Z,17.40
2019-05-26T19:25:37.221Z,17.50
2019-05-26T19:28:04.895Z,17.30
2019-05-26T19:30:32.380Z,17.60
2019-05-26T19:33:00.654Z,17.60
2019-05-26T19:35:28.891Z,17.30
2019-05-26T19:37:56.401Z,17.30
2019-05-26T19:40:24.732Z,17.30
2019-05-26T19:42:52.333Z,17.40
2019-05-26T19:45:19.890Z,17.30
2019-05-26T19:47:48.152Z,17.30
2019-05-26T19:50:15.735Z,17.20
2019-05-26T19:52:43.299Z,17.30
2019-05-26T19:55:10.830Z,17.40
2019-05-26T19:57:38.739Z,17.30
2019-05-26T20:00:08.843Z,17.20
2019-05-26T20:02:36.351Z,17.40
2019-05-26T20:05:05.832Z,17.00
2019-05-26T20:07:34.106Z,17.00
2019-05-26T20:10:02.423Z,17.00
2019-05-26T20:12:30.842Z,17.00
2019-05-26T20:14:58.326Z,17.00
2019-05-26T20:17:25.892Z,17.20
2019-05-26T20:19:53.553Z,17.20
2019-05-26T20:22:24.383Z,17.00
2019-05-26T20:24:49.472Z,16.80
2019-05-26T20:27:16.951Z,16.90
2019-05-26T20:29:44.540Z,17.10
2019-05-26T20:32:12.055Z,17.00
2019-05-26T20:34:39.669Z,16.80
2019-05-26T20:37:07.225Z,17.00
2019-05-26T20:39:34.743Z,17.00
2019-05-26T20:42:02.467Z,16.90
2019-05-26T20:44:30.043Z,16.90
2019-05-26T20:46:58.356Z,17.00
2019-05-26T20:49:25.983Z,16.90
2019-05-26T20:51:53.641Z,17.10
2019-05-26T20:54:21.926Z,17.10
2019-05-26T20:56:49.490Z,17.10
2019-05-26T20:59:17.051Z,17.00
2019-05-26T21:01:44.536Z,17.10
2019-05-26T21:04:13.772Z,16.90
2019-05-26T21:06:41.524Z,16.90
2019-05-26T21:09:11.298Z,17.00
2019-05-26T21:11:37.776Z,17.00
2019-05-26T21:14:06.180Z,16.90
2019-05-26T21:16:33.700Z,16.90
2019-05-26T21:19:01.959Z,16.70
2019-05-26T21:21:29.563Z,16.70
2019-05-26T21:23:57.812Z,16.80
2019-05-26T21:26:25.406Z,16.80
2019-05-26T21:28:53.872Z,16.80
2019-05-26T21:31:21.441Z,16.80
2019-05-26T21:33:49.000Z,17.00
2019-05-26T21:36:16.559Z,16.80
2019-05-26T21:38:44.043Z,16.70
2019-05-26T21:41:12.398Z,16.80
2019-05-26T21:43:39.898Z,16.80
2019-05-26T21:46:07.387Z,16.80
2019-05-26T21:48:34.969Z,16.70
2019-05-26T21:51:02.615Z,16.60
2019-05-26T21:53:30.102Z,16.60
2019-05-26T21:55:57.630Z,16.60
2019-05-26T21:58:25.102Z,16.60
2019-05-26T22:00:52.619Z,16.50
2019-05-26T22:03:20.937Z,16.70
2019-05-26T22:05:48.508Z,16.70
2019-05-26T22:08:16.225Z,16.50
2019-05-26T22:10:43.905Z,16.50
2019-05-26T22:13:12.176Z,16.30
2019-05-26T22:15:39.659Z,16.40
2019-05-26T22:18:08.008Z,16.50
2019-05-26T22:20:35.487Z,16.50
2019-05-26T22:23:03.909Z,16.40
2019-05-26T22:25:31.408Z,16.40
2019-05-26T22:27:59.000Z,16.30
2019-05-26T22:30:26.563Z,16.30
2019-05-26T22:32:54.232Z,16.20
2019-05-26T22:35:22.497Z,16.00
2019-05-26T22:37:50.065Z,16.00
2019-05-26T22:40:17.975Z,16.00
2019-05-26T22:42:45.503Z,16.00
2019-05-26T22:45:13.075Z,15.90
2019-05-26T22:47:41.353Z,15.80
2019-05-26T22:50:08.858Z,15.80
2019-05-26T22:52:36.355Z,15.90
2019-05-26T22:55:06.612Z,15.80
2019-05-26T22:57:34.165Z,15.90
2019-05-26T23:00:01.644Z,15.60
2019-05-26T23:02:29.896Z,15.70
2019-05-26T23:04:57.580Z,15.80
2019-05-26T23:07:25.139Z,15.70
2019-05-26T23:09:52.716Z,15.80
2019-05-26T23:12:20.198Z,15.70
2019-05-26T23:14:48.481Z,15.70
2019-05-26T23:17:15.957Z,15.70
2019-05-26T23:19:43.593Z,15.50
2019-05-26T23:22:12.058Z,15.60
2019-05-26T23:24:39.734Z,15.50
2019-05-26T23:27:07.415Z,15.80
2019-05-26T23:29:35.929Z,15.60
2019-05-26T23:32:04.480Z,15.60
2019-05-26T23:34:32.749Z,15.60
2019-05-26T23:37:01.886Z,15.60
2019-05-26T23:39:29.395Z,15.60
2019-05-26T23:41:56.988Z,15.70
2019-05-26T23:44:24.470Z,15.60
2019-05-26T23:46:51.962Z,15.60
2019-05-26T23:49:19.442Z,15.80
2019-05-26T23:51:47.035Z,15.70
2019-05-26T23:54:14.577Z,15.60
2019-05-26T23:56:42.074Z,15.60
2019-05-26T23:59:10.331Z,15.60
